sensor_id;sensor_type;location;lat;lon;timestamp;pressure;altitude;pressure_sealevel;temperature;humidity
24390;BME280;12510;56.468;-3.004;2022-08-19T00:01:27;99676.03;;;15.41;100.00
24390;BME280;12510;56.468;-3.004;2022-08-19T00:04:03;99669.59;;;15.29;100.00
24390;BME280;12510;56.468;-3.004;2022-08-19T00:06:30;99672.44;;;15.27;100.00
24390;BME280;12510;56.468;-3.004;2022-08-19T00:08:58;99667.25;;;15.19;100.00
24390;BME280;12510;56.468;-3.004;2022-08-19T00:11:26;99663.44;;;15.50;100.00
24390;BME280;12510;56.468;-3.004;2022-08-19T00:13:54;99665.44;;;15.19;100.00
24390;BME280;12510;56.468;-3.004;2022-08-19T00:16:24;99659.00;;;15.29;100.00
24390;BME280;12510;56.468;-3.004;2022-08-19T00:18:50;99656.94;;;15.31;100.00
24390;BME280;12510;56.468;-3.004;2022-08-19T00:21:17;99661.06;;;15.33;100.00
24390;BME280;12510;56.468;-3.004;2022-08-19T00:23:44;99669.06;;;15.40;100.00
24390;BME280;12510;56.468;-3.004;2022-08-19T00:26:10;99669.75;;;15.20;100.00
24390;BME280;12510;56.468;-3.004;2022-08-19T00:28:37;99667.63;;;15.37;100.00
24390;BME280;12510;56.468;-3.004;2022-08-19T00:31:05;99666.31;;;15.55;100.00
24390;BME280;12510;56.468;-3.004;2022-08-19T00:33:33;99670.88;;;15.61;100.00
24390;BME280;12510;56.468;-3.004;2022-08-19T00:36:01;99659.00;;;15.57;100.00
24390;BME280;12510;56.468;-3.004;2022-08-19T00:38:28;99658.16;;;15.28;100.00
24390;BME280;12510;56.468;-3.004;2022-08-19T00:40:54;99674.00;;;15.43;100.00
24390;BME280;12510;56.468;-3.004;2022-08-19T00:43:23;99662.19;;;15.46;100.00
24390;BME280;12510;56.468;-3.004;2022-08-19T00:45:49;99668.97;;;15.55;100.00
24390;BME280;12510;56.468;-3.004;2022-08-19T00:48:17;99657.16;;;15.07;100.00
24390;BME280;12510;56.468;-3.004;2022-08-19T00:50:45;99662.34;;;15.16;100.00
24390;BME280;12510;56.468;-3.004;2022-08-19T00:53:16;99673.28;;;15.06;100.00
24390;BME280;12510;56.468;-3.004;2022-08-19T00:55:46;99663.94;;;15.10;100.00
24390;BME280;12510;56.468;-3.004;2022-08-19T00:58:16;99666.50;;;15.03;100.00
24390;BME280;12510;56.468;-3.004;2022-08-19T01:00:44;99673.94;;;14.93;100.00
24390;BME280;12510;56.468;-3.004;2022-08-19T01:03:15;99672.81;;;15.02;100.00
24390;BME280;12510;56.468;-3.004;2022-08-19T01:05:43;99676.78;;;14.91;100.00
24390;BME280;12510;56.468;-3.004;2022-08-19T01:08:11;99670.69;;;14.91;100.00
24390;BME280;12510;56.468;-3.004;2022-08-19T01:10:41;99680.91;;;14.94;100.00
24390;BME280;12510;56.468;-3.004;2022-08-19T01:13:10;99674.91;;;15.07;100.00
24390;BME280;12510;56.468;-3.004;2022-08-19T01:15:45;99675.72;;;15.07;100.00
24390;BME280;12510;56.468;-3.004;2022-08-19T01:18:15;99673.63;;;15.03;100.00
24390;BME280;12510;56.468;-3.004;2022-08-19T01:20:42;99685.66;;;15.20;100.00
24390;BME280;12510;56.468;-3.004;2022-08-19T01:23:10;99687.47;;;15.20;100.00
24390;BME280;12510;56.468;-3.004;2022-08-19T01:28:24;99693.72;;;15.12;100.00
24390;BME280;12510;56.468;-3.004;2022-08-19T01:30:54;99690.13;;;15.20;100.00
24390;BME280;12510;56.468;-3.004;2022-08-19T01:33:21;99690.69;;;14.94;100.00
24390;BME280;12510;56.468;-3.004;2022-08-19T01:35:48;99688.91;;;14.79;100.00
24390;BME280;12510;56.468;-3.004;2022-08-19T01:38:24;99685.69;;;14.84;100.00
24390;BME280;12510;56.468;-3.004;2022-08-19T01:40:51;99679.19;;;14.86;100.00
24390;BME280;12510;56.468;-3.004;2022-08-19T01:43:18;99681.13;;;14.78;100.00
24390;BME280;12510;56.468;-3.004;2022-08-19T01:45:46;99687.72;;;14.82;100.00
24390;BME280;12510;56.468;-3.004;2022-08-19T01:48:13;99677.13;;;14.52;100.00
24390;BME280;12510;56.468;-3.004;2022-08-19T01:50:39;99676.69;;;14.48;100.00
24390;BME280;12510;56.468;-3.004;2022-08-19T01:53:08;99681.22;;;14.54;100.00
24390;BME280;12510;56.468;-3.004;2022-08-19T01:55:38;99680.16;;;14.64;100.00
24390;BME280;12510;56.468;-3.004;2022-08-19T01:58:06;99685.19;;;14.73;100.00
24390;BME280;12510;56.468;-3.004;2022-08-19T02:00:33;99688.41;;;15.12;100.00
24390;BME280;12510;56.468;-3.004;2022-08-19T02:03:00;99678.63;;;15.13;100.00
24390;BME280;12510;56.468;-3.004;2022-08-19T02:05:27;99689.59;;;14.88;100.00
24390;BME280;12510;56.468;-3.004;2022-08-19T02:07:56;99696.00;;;14.79;100.00
24390;BME280;12510;56.468;-3.004;2022-08-19T02:10:23;99692.56;;;15.00;100.00
24390;BME280;12510;56.468;-3.004;2022-08-19T02:12:50;99707.34;;;15.09;100.00
24390;BME280;12510;56.468;-3.004;2022-08-19T02:15:18;99706.28;;;15.03;100.00
24390;BME280;12510;56.468;-3.004;2022-08-19T02:17:47;99705.69;;;14.86;100.00
24390;BME280;12510;56.468;-3.004;2022-08-19T02:20:14;99710.88;;;14.95;100.00
24390;BME280;12510;56.468;-3.004;2022-08-19T02:22:42;99711.06;;;15.15;100.00
24390;BME280;12510;56.468;-3.004;2022-08-19T02:25:11;99721.50;;;15.16;100.00
24390;BME280;12510;56.468;-3.004;2022-08-19T02:27:38;99718.28;;;15.21;100.00
24390;BME280;12510;56.468;-3.004;2022-08-19T02:30:08;99705.28;;;15.26;100.00
24390;BME280;12510;56.468;-3.004;2022-08-19T02:32:35;99716.03;;;15.18;100.00
24390;BME280;12510;56.468;-3.004;2022-08-19T02:35:02;99709.75;;;15.25;100.00
24390;BME280;12510;56.468;-3.004;2022-08-19T02:37:28;99711.13;;;15.00;100.00
24390;BME280;12510;56.468;-3.004;2022-08-19T02:40:13;99711.97;;;15.22;100.00
24390;BME280;12510;56.468;-3.004;2022-08-19T02:42:41;99716.97;;;15.32;100.00
24390;BME280;12510;56.468;-3.004;2022-08-19T02:45:09;99711.91;;;15.37;100.00
24390;BME280;12510;56.468;-3.004;2022-08-19T02:47:35;99710.81;;;15.53;100.00
24390;BME280;12510;56.468;-3.004;2022-08-19T02:50:03;99715.75;;;15.56;100.00
24390;BME280;12510;56.468;-3.004;2022-08-19T02:52:31;99707.22;;;15.61;100.00
24390;BME280;12510;56.468;-3.004;2022-08-19T02:54:58;99704.25;;;15.49;100.00
24390;BME280;12510;56.468;-3.004;2022-08-19T02:57:24;99709.94;;;15.46;100.00
24390;BME280;12510;56.468;-3.004;2022-08-19T02:59:51;99704.00;;;15.44;100.00
24390;BME280;12510;56.468;-3.004;2022-08-19T03:02:18;99709.03;;;15.60;100.00
24390;BME280;12510;56.468;-3.004;2022-08-19T03:04:45;99704.16;;;15.35;100.00
24390;BME280;12510;56.468;-3.004;2022-08-19T03:07:15;99710.53;;;15.69;100.00
24390;BME280;12510;56.468;-3.004;2022-08-19T03:09:42;99716.19;;;15.59;100.00
24390;BME280;12510;56.468;-3.004;2022-08-19T03:12:10;99707.91;;;15.48;100.00
24390;BME280;12510;56.468;-3.004;2022-08-19T03:14:37;99704.00;;;15.44;100.00
24390;BME280;12510;56.468;-3.004;2022-08-19T03:17:04;99720.19;;;15.27;100.00
24390;BME280;12510;56.468;-3.004;2022-08-19T03:19:30;99718.41;;;15.13;100.00
24390;BME280;12510;56.468;-3.004;2022-08-19T03:21:57;99716.75;;;15.33;100.00
24390;BME280;12510;56.468;-3.004;2022-08-19T03:24:24;99720.41;;;15.11;100.00
24390;BME280;12510;56.468;-3.004;2022-08-19T03:26:53;99719.34;;;15.05;100.00
24390;BME280;12510;56.468;-3.004;2022-08-19T03:29:24;99726.56;;;15.33;100.00
24390;BME280;12510;56.468;-3.004;2022-08-19T03:31:51;99735.72;;;15.08;100.00
24390;BME280;12510;56.468;-3.004;2022-08-19T03:34:24;99730.84;;;15.12;100.00
24390;BME280;12510;56.468;-3.004;2022-08-19T03:36:58;99746.66;;;15.20;100.00
24390;BME280;12510;56.468;-3.004;2022-08-19T03:39:25;99740.09;;;15.01;100.00
24390;BME280;12510;56.468;-3.004;2022-08-19T03:41:53;99736.44;;;15.02;100.00
24390;BME280;12510;56.468;-3.004;2022-08-19T03:44:23;99738.81;;;15.34;100.00
24390;BME280;12510;56.468;-3.004;2022-08-19T03:46:52;99728.69;;;15.01;100.00
24390;BME280;12510;56.468;-3.004;2022-08-19T03:49:20;99726.56;;;15.11;100.00
24390;BME280;12510;56.468;-3.004;2022-08-19T03:51:48;99729.09;;;14.83;100.00
24390;BME280;12510;56.468;-3.004;2022-08-19T03:54:17;99735.03;;;14.85;100.00
24390;BME280;12510;56.468;-3.004;2022-08-19T03:56:47;99741.94;;;15.01;100.00
24390;BME280;12510;56.468;-3.004;2022-08-19T03:59:17;99740.41;;;14.91;100.00
24390;BME280;12510;56.468;-3.004;2022-08-19T04:01:44;99738.53;;;14.70;100.00
24390;BME280;12510;56.468;-3.004;2022-08-19T04:04:11;99741.44;;;14.75;100.00
24390;BME280;12510;56.468;-3.004;2022-08-19T04:06:38;99737.72;;;15.06;100.00
24390;BME280;12510;56.468;-3.004;2022-08-19T04:09:08;99734.88;;;14.71;100.00
24390;BME280;12510;56.468;-3.004;2022-08-19T04:11:36;99736.84;;;14.99;100.00
24390;BME280;12510;56.468;-3.004;2022-08-19T04:14:06;99731.34;;;15.01;100.00
24390;BME280;12510;56.468;-3.004;2022-08-19T04:16:34;99726.03;;;15.01;100.00
24390;BME280;12510;56.468;-3.004;2022-08-19T04:19:02;99736.53;;;15.09;100.00
24390;BME280;12510;56.468;-3.004;2022-08-19T04:21:29;99738.34;;;14.72;100.00
24390;BME280;12510;56.468;-3.004;2022-08-19T04:23:56;99747.78;;;14.96;100.00
24390;BME280;12510;56.468;-3.004;2022-08-19T04:26:26;99742.06;;;14.93;100.00
24390;BME280;12510;56.468;-3.004;2022-08-19T04:28:53;99754.03;;;15.25;100.00
24390;BME280;12510;56.468;-3.004;2022-08-19T04:31:27;99756.59;;;15.18;100.00
24390;BME280;12510;56.468;-3.004;2022-08-19T04:33:56;99757.50;;;14.89;100.00
24390;BME280;12510;56.468;-3.004;2022-08-19T04:36:32;99759.94;;;15.05;100.00
24390;BME280;12510;56.468;-3.004;2022-08-19T04:39:04;99760.03;;;15.34;100.00
24390;BME280;12510;56.468;-3.004;2022-08-19T04:41:31;99769.00;;;15.11;100.00
24390;BME280;12510;56.468;-3.004;2022-08-19T04:44:15;99761.28;;;14.80;100.00
24390;BME280;12510;56.468;-3.004;2022-08-19T04:46:46;99756.66;;;15.03;100.00
24390;BME280;12510;56.468;-3.004;2022-08-19T04:49:15;99766.56;;;15.16;100.00
24390;BME280;12510;56.468;-3.004;2022-08-19T04:51:44;99760.00;;;14.75;100.00
24390;BME280;12510;56.468;-3.004;2022-08-19T04:54:11;99762.94;;;14.66;100.00
24390;BME280;12510;56.468;-3.004;2022-08-19T04:56:39;99758.47;;;15.03;100.00
24390;BME280;12510;56.468;-3.004;2022-08-19T04:59:05;99759.75;;;15.07;100.00
24390;BME280;12510;56.468;-3.004;2022-08-19T05:01:33;99768.75;;;14.91;100.00
24390;BME280;12510;56.468;-3.004;2022-08-19T05:04:00;99759.03;;;14.98;100.00
24390;BME280;12510;56.468;-3.004;2022-08-19T05:06:27;99756.41;;;14.98;100.00
24390;BME280;12510;56.468;-3.004;2022-08-19T05:08:54;99755.31;;;14.63;100.00
24390;BME280;12510;56.468;-3.004;2022-08-19T05:11:31;99753.84;;;14.90;100.00
24390;BME280;12510;56.468;-3.004;2022-08-19T05:13:58;99761.19;;;14.73;100.00
24390;BME280;12510;56.468;-3.004;2022-08-19T05:16:26;99766.88;;;14.70;100.00
24390;BME280;12510;56.468;-3.004;2022-08-19T05:18:53;99771.59;;;14.45;100.00
24390;BME280;12510;56.468;-3.004;2022-08-19T05:21:39;99766.88;;;14.70;100.00
24390;BME280;12510;56.468;-3.004;2022-08-19T05:24:25;99773.81;;;14.71;100.00
24390;BME280;12510;56.468;-3.004;2022-08-19T05:26:53;99772.69;;;14.65;100.00
24390;BME280;12510;56.468;-3.004;2022-08-19T05:29:24;99774.75;;;15.00;100.00
24390;BME280;12510;56.468;-3.004;2022-08-19T05:31:52;99771.91;;;15.01;100.00
24390;BME280;12510;56.468;-3.004;2022-08-19T05:34:20;99770.19;;;15.08;100.00
24390;BME280;12510;56.468;-3.004;2022-08-19T05:36:55;99784.31;;;14.79;100.00
24390;BME280;12510;56.468;-3.004;2022-08-19T05:39:25;99787.41;;;14.98;100.00
24390;BME280;12510;56.468;-3.004;2022-08-19T05:41:56;99790.69;;;14.85;100.00
24390;BME280;12510;56.468;-3.004;2022-08-19T05:44:28;99789.47;;;15.02;100.00
24390;BME280;12510;56.468;-3.004;2022-08-19T05:46:58;99794.03;;;15.08;100.00
24390;BME280;12510;56.468;-3.004;2022-08-19T05:49:26;99803.44;;;15.48;100.00
24390;BME280;12510;56.468;-3.004;2022-08-19T05:51:53;99794.19;;;15.22;100.00
24390;BME280;12510;56.468;-3.004;2022-08-19T05:54:22;99792.88;;;15.33;100.00
24390;BME280;12510;56.468;-3.004;2022-08-19T05:56:50;99789.78;;;15.29;100.00
24390;BME280;12510;56.468;-3.004;2022-08-19T05:59:18;99802.50;;;15.34;100.00
24390;BME280;12510;56.468;-3.004;2022-08-19T06:01:46;99805.63;;;15.22;100.00
24390;BME280;12510;56.468;-3.004;2022-08-19T06:04:13;99797.84;;;15.21;100.00
24390;BME280;12510;56.468;-3.004;2022-08-19T06:06:39;99818.34;;;15.49;100.00
24390;BME280;12510;56.468;-3.004;2022-08-19T06:09:07;99813.84;;;15.28;100.00
24390;BME280;12510;56.468;-3.004;2022-08-19T06:11:49;99818.34;;;15.70;100.00
24390;BME280;12510;56.468;-3.004;2022-08-19T06:14:23;99822.88;;;15.76;100.00
24390;BME280;12510;56.468;-3.004;2022-08-19T06:16:51;99831.34;;;15.80;100.00
24390;BME280;12510;56.468;-3.004;2022-08-19T06:19:20;99819.94;;;15.65;100.00
24390;BME280;12510;56.468;-3.004;2022-08-19T06:21:48;99831.59;;;15.85;100.00
24390;BME280;12510;56.468;-3.004;2022-08-19T06:24:18;99829.25;;;16.25;100.00
24390;BME280;12510;56.468;-3.004;2022-08-19T06:26:46;99833.16;;;16.01;100.00
24390;BME280;12510;56.468;-3.004;2022-08-19T06:29:15;99837.81;;;15.99;100.00
24390;BME280;12510;56.468;-3.004;2022-08-19T06:31:44;99840.84;;;16.46;100.00
24390;BME280;12510;56.468;-3.004;2022-08-19T06:34:11;99839.72;;;16.62;100.00
24390;BME280;12510;56.468;-3.004;2022-08-19T06:36:41;99844.19;;;16.90;100.00
24390;BME280;12510;56.468;-3.004;2022-08-19T06:39:13;99844.97;;;16.55;100.00
24390;BME280;12510;56.468;-3.004;2022-08-19T06:41:43;99848.56;;;16.69;100.00
24390;BME280;12510;56.468;-3.004;2022-08-19T06:44:18;99854.88;;;16.97;100.00
24390;BME280;12510;56.468;-3.004;2022-08-19T06:46:45;99852.50;;;16.80;100.00
24390;BME280;12510;56.468;-3.004;2022-08-19T06:49:12;99863.38;;;17.20;100.00
24390;BME280;12510;56.468;-3.004;2022-08-19T06:51:44;99852.88;;;17.05;100.00
24390;BME280;12510;56.468;-3.004;2022-08-19T06:54:10;99854.38;;;16.86;100.00
24390;BME280;12510;56.468;-3.004;2022-08-19T06:56:37;99850.91;;;16.86;100.00
24390;BME280;12510;56.468;-3.004;2022-08-19T06:59:09;99863.09;;;17.08;100.00
24390;BME280;12510;56.468;-3.004;2022-08-19T07:01:38;99867.63;;;16.80;100.00
24390;BME280;12510;56.468;-3.004;2022-08-19T07:04:06;99872.44;;;16.91;100.00
24390;BME280;12510;56.468;-3.004;2022-08-19T07:06:33;99866.63;;;16.81;100.00
24390;BME280;12510;56.468;-3.004;2022-08-19T07:08:59;99875.34;;;16.68;100.00
24390;BME280;12510;56.468;-3.004;2022-08-19T07:11:26;99875.69;;;16.30;100.00
24390;BME280;12510;56.468;-3.004;2022-08-19T07:13:52;99878.06;;;16.74;100.00
24390;BME280;12510;56.468;-3.004;2022-08-19T07:16:19;99877.28;;;16.87;100.00
24390;BME280;12510;56.468;-3.004;2022-08-19T07:18:50;99877.75;;;16.63;100.00
24390;BME280;12510;56.468;-3.004;2022-08-19T07:21:19;99887.91;;;16.52;100.00
24390;BME280;12510;56.468;-3.004;2022-08-19T07:23:46;99876.00;;;17.12;100.00
24390;BME280;12510;56.468;-3.004;2022-08-19T07:26:19;99878.34;;;17.28;100.00
24390;BME280;12510;56.468;-3.004;2022-08-19T07:28:47;99886.94;;;18.12;100.00
24390;BME280;12510;56.468;-3.004;2022-08-19T07:31:18;99897.38;;;18.07;100.00
24390;BME280;12510;56.468;-3.004;2022-08-19T07:33:46;99889.56;;;18.92;100.00
24390;BME280;12510;56.468;-3.004;2022-08-19T07:36:16;99888.56;;;19.77;100.00
24390;BME280;12510;56.468;-3.004;2022-08-19T07:38:46;99892.41;;;20.20;100.00
24390;BME280;12510;56.468;-3.004;2022-08-19T07:41:21;99880.78;;;18.58;100.00
24390;BME280;12510;56.468;-3.004;2022-08-19T07:43:49;99888.06;;;19.10;100.00
24390;BME280;12510;56.468;-3.004;2022-08-19T07:46:16;99899.84;;;19.80;100.00
24390;BME280;12510;56.468;-3.004;2022-08-19T07:48:44;99897.34;;;20.92;100.00
24390;BME280;12510;56.468;-3.004;2022-08-19T07:51:17;99893.25;;;20.90;100.00
24390;BME280;12510;56.468;-3.004;2022-08-19T07:53:44;99890.94;;;20.75;100.00
24390;BME280;12510;56.468;-3.004;2022-08-19T07:56:14;99896.97;;;21.07;100.00
24390;BME280;12510;56.468;-3.004;2022-08-19T07:58:43;99906.16;;;19.53;100.00
24390;BME280;12510;56.468;-3.004;2022-08-19T08:01:17;99914.97;;;19.08;100.00
24390;BME280;12510;56.468;-3.004;2022-08-19T08:03:44;99914.53;;;19.64;100.00
24390;BME280;12510;56.468;-3.004;2022-08-19T08:06:30;99910.81;;;19.65;100.00
24390;BME280;12510;56.468;-3.004;2022-08-19T08:09:17;99914.91;;;19.22;100.00
24390;BME280;12510;56.468;-3.004;2022-08-19T08:11:53;99905.94;;;20.00;100.00
24390;BME280;12510;56.468;-3.004;2022-08-19T08:14:29;99900.09;;;21.72;100.00
24390;BME280;12510;56.468;-3.004;2022-08-19T08:16:57;99897.56;;;22.55;100.00
24390;BME280;12510;56.468;-3.004;2022-08-19T08:19:24;99913.19;;;22.82;100.00
24390;BME280;12510;56.468;-3.004;2022-08-19T08:21:54;99905.94;;;22.94;100.00
24390;BME280;12510;56.468;-3.004;2022-08-19T08:24:21;99904.09;;;22.59;100.00
24390;BME280;12510;56.468;-3.004;2022-08-19T08:26:48;99908.00;;;22.33;100.00
24390;BME280;12510;56.468;-3.004;2022-08-19T08:29:14;99895.19;;;22.23;100.00
24390;BME280;12510;56.468;-3.004;2022-08-19T08:31:43;99900.56;;;22.94;100.00
24390;BME280;12510;56.468;-3.004;2022-08-19T08:34:10;99904.63;;;23.20;100.00
24390;BME280;12510;56.468;-3.004;2022-08-19T08:36:42;99899.78;;;23.34;100.00
24390;BME280;12510;56.468;-3.004;2022-08-19T08:39:15;99900.53;;;23.30;100.00
24390;BME280;12510;56.468;-3.004;2022-08-19T08:47:04;99899.47;;;24.73;100.00
24390;BME280;12510;56.468;-3.004;2022-08-19T08:49:47;99896.56;;;23.49;100.00
24390;BME280;12510;56.468;-3.004;2022-08-19T08:52:24;99910.50;;;23.75;100.00
24390;BME280;12510;56.468;-3.004;2022-08-19T08:54:54;99902.44;;;22.93;100.00
24390;BME280;12510;56.468;-3.004;2022-08-19T08:57:49;99902.56;;;24.31;100.00
24390;BME280;12510;56.468;-3.004;2022-08-19T09:00:22;99905.13;;;25.16;100.00
24390;BME280;12510;56.468;-3.004;2022-08-19T09:02:50;99905.38;;;24.19;100.00
24390;BME280;12510;56.468;-3.004;2022-08-19T09:05:17;99896.63;;;25.47;100.00
24390;BME280;12510;56.468;-3.004;2022-08-19T09:08:08;99907.34;;;24.80;100.00
24390;BME280;12510;56.468;-3.004;2022-08-19T09:10:46;99902.25;;;25.23;100.00
24390;BME280;12510;56.468;-3.004;2022-08-19T09:13:52;99908.44;;;25.01;100.00
24390;BME280;12510;56.468;-3.004;2022-08-19T09:16:21;99916.75;;;25.39;100.00
24390;BME280;12510;56.468;-3.004;2022-08-19T09:18:55;99909.66;;;24.71;100.00
24390;BME280;12510;56.468;-3.004;2022-08-19T09:21:24;99898.78;;;25.27;100.00
24390;BME280;12510;56.468;-3.004;2022-08-19T09:23:52;99902.78;;;24.81;100.00
24390;BME280;12510;56.468;-3.004;2022-08-19T09:26:20;99904.19;;;25.77;100.00
24390;BME280;12510;56.468;-3.004;2022-08-19T09:28:49;99898.03;;;24.32;100.00
24390;BME280;12510;56.468;-3.004;2022-08-19T09:31:22;99895.69;;;23.72;100.00
24390;BME280;12510;56.468;-3.004;2022-08-19T09:33:51;99898.78;;;23.23;100.00
24390;BME280;12510;56.468;-3.004;2022-08-19T09:36:20;99887.28;;;24.88;100.00
24390;BME280;12510;56.468;-3.004;2022-08-19T09:38:48;99893.31;;;23.76;100.00
24390;BME280;12510;56.468;-3.004;2022-08-19T09:41:18;99894.88;;;22.79;100.00
24390;BME280;12510;56.468;-3.004;2022-08-19T09:43:45;99886.03;;;23.59;100.00
24390;BME280;12510;56.468;-3.004;2022-08-19T09:46:12;99890.81;;;23.29;100.00
24390;BME280;12510;56.468;-3.004;2022-08-19T09:48:40;99890.06;;;23.16;100.00
24390;BME280;12510;56.468;-3.004;2022-08-19T09:51:08;99886.72;;;23.84;100.00
24390;BME280;12510;56.468;-3.004;2022-08-19T09:53:37;99882.50;;;24.56;100.00
24390;BME280;12510;56.468;-3.004;2022-08-19T09:56:05;99890.66;;;24.27;100.00
24390;BME280;12510;56.468;-3.004;2022-08-19T09:58:32;99879.59;;;23.32;100.00
24390;BME280;12510;56.468;-3.004;2022-08-19T10:01:00;99879.47;;;25.58;100.00
24390;BME280;12510;56.468;-3.004;2022-08-19T10:03:28;99874.91;;;24.70;100.00
24390;BME280;12510;56.468;-3.004;2022-08-19T10:05:58;99865.16;;;24.86;100.00
24390;BME280;12510;56.468;-3.004;2022-08-19T10:08:28;99867.66;;;24.92;100.00
24390;BME280;12510;56.468;-3.004;2022-08-19T10:10:55;99867.41;;;25.16;100.00
24390;BME280;12510;56.468;-3.004;2022-08-19T10:13:25;99870.44;;;26.39;100.00
24390;BME280;12510;56.468;-3.004;2022-08-19T10:15:54;99875.34;;;25.77;100.00
24390;BME280;12510;56.468;-3.004;2022-08-19T10:18:23;99877.84;;;25.57;100.00
24390;BME280;12510;56.468;-3.004;2022-08-19T10:20:50;99873.38;;;26.00;100.00
24390;BME280;12510;56.468;-3.004;2022-08-19T10:23:19;99869.25;;;25.10;100.00
24390;BME280;12510;56.468;-3.004;2022-08-19T10:25:47;99870.38;;;25.64;100.00
24390;BME280;12510;56.468;-3.004;2022-08-19T10:28:13;99875.47;;;24.72;100.00
24390;BME280;12510;56.468;-3.004;2022-08-19T10:30:41;99875.41;;;25.83;100.00
24390;BME280;12510;56.468;-3.004;2022-08-19T10:33:07;99875.91;;;23.50;100.00
24390;BME280;12510;56.468;-3.004;2022-08-19T10:35:34;99870.28;;;24.31;100.00
24390;BME280;12510;56.468;-3.004;2022-08-19T10:38:02;99866.63;;;23.57;100.00
24390;BME280;12510;56.468;-3.004;2022-08-19T10:40:29;99867.97;;;24.74;100.00
24390;BME280;12510;56.468;-3.004;2022-08-19T10:42:56;99871.09;;;23.81;100.00
24390;BME280;12510;56.468;-3.004;2022-08-19T10:45:23;99880.75;;;22.71;100.00
24390;BME280;12510;56.468;-3.004;2022-08-19T10:47:55;99890.78;;;23.40;100.00
24390;BME280;12510;56.468;-3.004;2022-08-19T10:50:22;99882.41;;;23.25;100.00
24390;BME280;12510;56.468;-3.004;2022-08-19T10:53:07;99872.69;;;22.83;100.00
24390;BME280;12510;56.468;-3.004;2022-08-19T10:55:37;99873.63;;;23.58;100.00
24390;BME280;12510;56.468;-3.004;2022-08-19T10:58:22;99877.16;;;23.59;100.00
24390;BME280;12510;56.468;-3.004;2022-08-19T11:00:58;99870.84;;;23.36;100.00
24390;BME280;12510;56.468;-3.004;2022-08-19T11:03:26;99870.63;;;23.26;100.00
24390;BME280;12510;56.468;-3.004;2022-08-19T11:06:05;99878.19;;;22.76;100.00
24390;BME280;12510;56.468;-3.004;2022-08-19T11:08:32;99879.25;;;22.52;100.00
24390;BME280;12510;56.468;-3.004;2022-08-19T11:11:02;99872.50;;;22.37;100.00
24390;BME280;12510;56.468;-3.004;2022-08-19T11:13:31;99868.25;;;22.30;100.00
24390;BME280;12510;56.468;-3.004;2022-08-19T11:16:04;99883.03;;;23.03;100.00
24390;BME280;12510;56.468;-3.004;2022-08-19T11:18:35;99882.50;;;22.54;100.00
24390;BME280;12510;56.468;-3.004;2022-08-19T11:21:07;99875.59;;;22.34;100.00
24390;BME280;12510;56.468;-3.004;2022-08-19T11:23:34;99894.06;;;22.42;100.00
24390;BME280;12510;56.468;-3.004;2022-08-19T11:26:00;99889.88;;;22.47;100.00
24390;BME280;12510;56.468;-3.004;2022-08-19T11:28:27;99892.16;;;22.90;100.00
24390;BME280;12510;56.468;-3.004;2022-08-19T11:30:54;99881.59;;;22.48;100.00
24390;BME280;12510;56.468;-3.004;2022-08-19T11:33:21;99897.34;;;22.68;100.00
24390;BME280;12510;56.468;-3.004;2022-08-19T11:35:48;99889.22;;;22.09;100.00
24390;BME280;12510;56.468;-3.004;2022-08-19T11:38:15;99894.72;;;21.72;100.00
24390;BME280;12510;56.468;-3.004;2022-08-19T11:40:41;99889.38;;;22.38;100.00
24390;BME280;12510;56.468;-3.004;2022-08-19T11:43:08;99887.72;;;21.71;100.00
24390;BME280;12510;56.468;-3.004;2022-08-19T11:45:35;99898.31;;;23.15;100.00
24390;BME280;12510;56.468;-3.004;2022-08-19T11:48:02;99896.06;;;21.93;100.00
24390;BME280;12510;56.468;-3.004;2022-08-19T11:50:29;99883.38;;;22.00;100.00
24390;BME280;12510;56.468;-3.004;2022-08-19T11:52:56;99896.78;;;22.00;100.00
24390;BME280;12510;56.468;-3.004;2022-08-19T11:55:23;99895.81;;;22.60;100.00
24390;BME280;12510;56.468;-3.004;2022-08-19T11:57:49;99895.44;;;22.33;100.00
24390;BME280;12510;56.468;-3.004;2022-08-19T12:00:16;99892.66;;;21.86;100.00
24390;BME280;12510;56.468;-3.004;2022-08-19T12:02:42;99887.38;;;22.21;100.00
24390;BME280;12510;56.468;-3.004;2022-08-19T12:05:09;99891.88;;;21.97;100.00
24390;BME280;12510;56.468;-3.004;2022-08-19T12:07:36;99893.53;;;22.22;100.00
24390;BME280;12510;56.468;-3.004;2022-08-19T12:10:02;99894.88;;;22.43;100.00
24390;BME280;12510;56.468;-3.004;2022-08-19T12:12:29;99893.38;;;22.59;100.00
24390;BME280;12510;56.468;-3.004;2022-08-19T12:14:55;99898.09;;;23.04;100.00
24390;BME280;12510;56.468;-3.004;2022-08-19T12:17:25;99886.75;;;22.07;100.00
24390;BME280;12510;56.468;-3.004;2022-08-19T12:19:52;99895.06;;;21.45;100.00
24390;BME280;12510;56.468;-3.004;2022-08-19T12:22:19;99893.28;;;22.00;100.00
24390;BME280;12510;56.468;-3.004;2022-08-19T12:24:47;99904.44;;;21.85;100.00
24390;BME280;12510;56.468;-3.004;2022-08-19T12:27:14;99911.44;;;21.98;100.00
24390;BME280;12510;56.468;-3.004;2022-08-19T12:29:41;99903.50;;;21.12;100.00
24390;BME280;12510;56.468;-3.004;2022-08-19T12:32:07;99902.88;;;22.31;100.00
24390;BME280;12510;56.468;-3.004;2022-08-19T12:34:34;99908.63;;;22.70;100.00
24390;BME280;12510;56.468;-3.004;2022-08-19T12:37:04;99905.53;;;21.96;100.00
24390;BME280;12510;56.468;-3.004;2022-08-19T12:39:38;99894.19;;;21.93;100.00
24390;BME280;12510;56.468;-3.004;2022-08-19T12:42:05;99891.72;;;21.80;100.00
24390;BME280;12510;56.468;-3.004;2022-08-19T12:44:33;99892.31;;;21.33;100.00
24390;BME280;12510;56.468;-3.004;2022-08-19T12:47:00;99892.47;;;22.11;100.00
24390;BME280;12510;56.468;-3.004;2022-08-19T12:49:28;99888.78;;;22.24;100.00
24390;BME280;12510;56.468;-3.004;2022-08-19T12:51:55;99893.09;;;22.96;100.00
24390;BME280;12510;56.468;-3.004;2022-08-19T12:54:21;99888.25;;;22.69;100.00
24390;BME280;12510;56.468;-3.004;2022-08-19T12:56:48;99898.34;;;23.03;100.00
24390;BME280;12510;56.468;-3.004;2022-08-19T12:59:14;99887.06;;;22.53;100.00